North Topsail Beach, North Carolina
Current Conditions -  °F | °C
As of 5:56 PM on Saturday 22 Nov 2014 (Local Time) from KNCA Reporting Station
Clear Clear  
Wind Chill: 49°   Ceiling: Unl
Heat Index: 49°   Visibility: 10mi
Dew Point: 38°   Wind: 0mph
Humidity: 66%   Direction: NA
Pressure: 30.4"   Gusts: NA
Location:  34.5396°N, 77.4388°W
Report Text: KNCA 222256Z AUTO 00000KT 10SM CLR 09/03 A3040 RMK AO2 SLP296 T00940033 $
Loading
Personal Weather Stations






























Interactive Weather Map New forecast layout! Learn more

10-Day Weather Forecast

Advertisements
Track Severe Weather on mobile